Terminal Aerodrome Forecast
Issued by NWS

Home | Current Version | Previous Version | Text Only | Print | Product List | Glossary On
Versions: 1 2 3 4 5 6 7 8 9 10 11 12 13 14 15 16 17 18 19 20 21 22 23 24 25 26 27 28 29 30 31 32 33
000
FTUS45 KBOU 012106 AAA
TAFAPA
TAF AMD
KAPA 012106Z 0121/0218 03012G18KT P6SM VCSH SCT080 BKN120
      TEMPO 0122/0124 VRB20G30KT BKN070
     FM020300 01012G20KT P6SM SCT080 BKN120
     FM020800 05010KT P6SM SCT012 OVC030
     FM021300 07010KT P6SM VCSH SCT008 OVC020
      TEMPO 0214/0218 5SM -SN BR=

USA.gov is the U.S. government's official web portal to all federal, state and local government web resources and services.